sensor_id;sensor_type;location;lat;lon;timestamp;temperature;humidity
32296;DHT22;18781;51.550;5.418;2024-03-02T00:00:02;12.10;62.80
32296;DHT22;18781;51.550;5.418;2024-03-02T00:02:41;12.10;62.90
32296;DHT22;18781;51.550;5.418;2024-03-02T00:05:07;12.10;63.00
32296;DHT22;18781;51.550;5.418;2024-03-02T00:07:33;12.10;63.10
32296;DHT22;18781;51.550;5.418;2024-03-02T00:09:59;12.10;63.20
32296;DHT22;18781;51.550;5.418;2024-03-02T00:12:25;12.20;63.50
32296;DHT22;18781;51.550;5.418;2024-03-02T00:14:51;12.20;64.10
32296;DHT22;18781;51.550;5.418;2024-03-02T00:17:25;12.20;64.40
32296;DHT22;18781;51.550;5.418;2024-03-02T00:19:51;12.20;64.80
32296;DHT22;18781;51.550;5.418;2024-03-02T00:22:17;12.10;64.70
32296;DHT22;18781;51.550;5.418;2024-03-02T00:24:43;12.10;64.70
32296;DHT22;18781;51.550;5.418;2024-03-02T00:27:13;12.00;65.00
32296;DHT22;18781;51.550;5.418;2024-03-02T00:29:40;12.00;65.50
32296;DHT22;18781;51.550;5.418;2024-03-02T00:32:12;11.90;65.40
32296;DHT22;18781;51.550;5.418;2024-03-02T00:34:39;11.80;65.80
32296;DHT22;18781;51.550;5.418;2024-03-02T00:37:05;11.80;65.60
32296;DHT22;18781;51.550;5.418;2024-03-02T00:39:30;11.70;65.80
32296;DHT22;18781;51.550;5.418;2024-03-02T00:41:56;11.70;66.00
32296;DHT22;18781;51.550;5.418;2024-03-02T00:44:24;11.60;66.20
32296;DHT22;18781;51.550;5.418;2024-03-02T00:46:51;11.60;66.40
32296;DHT22;18781;51.550;5.418;2024-03-02T00:49:21;11.50;66.40
32296;DHT22;18781;51.550;5.418;2024-03-02T00:51:48;11.50;66.60
32296;DHT22;18781;51.550;5.418;2024-03-02T00:54:25;11.50;66.40
32296;DHT22;18781;51.550;5.418;2024-03-02T00:56:53;11.40;66.80
32296;DHT22;18781;51.550;5.418;2024-03-02T00:59:21;11.40;66.90
32296;DHT22;18781;51.550;5.418;2024-03-02T01:01:48;11.40;67.10
32296;DHT22;18781;51.550;5.418;2024-03-02T01:04:14;11.40;67.30
32296;DHT22;18781;51.550;5.418;2024-03-02T01:06:40;11.40;67.60
32296;DHT22;18781;51.550;5.418;2024-03-02T01:09:06;11.30;67.50
32296;DHT22;18781;51.550;5.418;2024-03-02T01:11:31;11.30;67.60
32296;DHT22;18781;51.550;5.418;2024-03-02T01:13:57;11.30;67.60
32296;DHT22;18781;51.550;5.418;2024-03-02T01:16:23;11.30;67.70
32296;DHT22;18781;51.550;5.418;2024-03-02T01:18:48;11.20;67.80
32296;DHT22;18781;51.550;5.418;2024-03-02T01:21:14;11.20;68.40
32296;DHT22;18781;51.550;5.418;2024-03-02T01:23:40;11.20;67.90
32296;DHT22;18781;51.550;5.418;2024-03-02T01:26:05;11.20;68.00
32296;DHT22;18781;51.550;5.418;2024-03-02T01:28:31;11.20;67.90
32296;DHT22;18781;51.550;5.418;2024-03-02T01:30:56;11.20;68.00
32296;DHT22;18781;51.550;5.418;2024-03-02T01:33:22;11.20;68.00
32296;DHT22;18781;51.550;5.418;2024-03-02T01:35:48;11.20;68.10
32296;DHT22;18781;51.550;5.418;2024-03-02T01:38:13;11.20;68.10
32296;DHT22;18781;51.550;5.418;2024-03-02T01:40:39;11.20;68.60
32296;DHT22;18781;51.550;5.418;2024-03-02T01:43:06;11.20;68.20
32296;DHT22;18781;51.550;5.418;2024-03-02T01:45:31;11.20;68.20
32296;DHT22;18781;51.550;5.418;2024-03-02T01:47:57;11.20;68.30
32296;DHT22;18781;51.550;5.418;2024-03-02T01:50:32;11.20;68.30
32296;DHT22;18781;51.550;5.418;2024-03-02T01:52:59;11.20;68.70
32296;DHT22;18781;51.550;5.418;2024-03-02T01:55:25;11.10;68.40
32296;DHT22;18781;51.550;5.418;2024-03-02T01:57:52;11.10;68.40
32296;DHT22;18781;51.550;5.418;2024-03-02T02:00:19;11.10;68.30
32296;DHT22;18781;51.550;5.418;2024-03-02T02:02:46;11.10;68.30
32296;DHT22;18781;51.550;5.418;2024-03-02T02:05:11;11.10;68.40
32296;DHT22;18781;51.550;5.418;2024-03-02T02:07:37;11.10;68.40
32296;DHT22;18781;51.550;5.418;2024-03-02T02:10:03;11.10;68.50
32296;DHT22;18781;51.550;5.418;2024-03-02T02:12:29;11.10;68.60
32296;DHT22;18781;51.550;5.418;2024-03-02T02:14:55;11.10;68.60
32296;DHT22;18781;51.550;5.418;2024-03-02T02:17:21;11.00;68.70
32296;DHT22;18781;51.550;5.418;2024-03-02T02:19:46;11.00;68.70
32296;DHT22;18781;51.550;5.418;2024-03-02T02:22:13;11.00;68.80
32296;DHT22;18781;51.550;5.418;2024-03-02T02:24:41;11.00;68.80
32296;DHT22;18781;51.550;5.418;2024-03-02T02:27:08;11.00;69.00
32296;DHT22;18781;51.550;5.418;2024-03-02T02:29:34;11.00;69.30
32296;DHT22;18781;51.550;5.418;2024-03-02T02:31:59;11.00;68.80
32296;DHT22;18781;51.550;5.418;2024-03-02T02:34:25;10.90;68.80
32296;DHT22;18781;51.550;5.418;2024-03-02T02:36:51;10.90;68.90
32296;DHT22;18781;51.550;5.418;2024-03-02T02:39:18;10.90;69.00
32296;DHT22;18781;51.550;5.418;2024-03-02T02:41:45;10.90;69.10
32296;DHT22;18781;51.550;5.418;2024-03-02T02:44:11;10.90;69.20
32296;DHT22;18781;51.550;5.418;2024-03-02T02:46:40;10.90;69.30
32296;DHT22;18781;51.550;5.418;2024-03-02T02:49:06;10.90;69.40
32296;DHT22;18781;51.550;5.418;2024-03-02T02:51:32;10.90;69.40
32296;DHT22;18781;51.550;5.418;2024-03-02T02:53:57;10.90;69.50
32296;DHT22;18781;51.550;5.418;2024-03-02T02:56:23;10.80;69.40
32296;DHT22;18781;51.550;5.418;2024-03-02T02:58:49;10.90;69.50
32296;DHT22;18781;51.550;5.418;2024-03-02T03:01:17;10.80;69.40
32296;DHT22;18781;51.550;5.418;2024-03-02T03:03:44;10.80;69.40
32296;DHT22;18781;51.550;5.418;2024-03-02T03:06:10;10.80;69.30
32296;DHT22;18781;51.550;5.418;2024-03-02T03:08:36;10.80;69.30
32296;DHT22;18781;51.550;5.418;2024-03-02T03:11:01;10.80;69.30
32296;DHT22;18781;51.550;5.418;2024-03-02T03:13:27;10.80;69.40
32296;DHT22;18781;51.550;5.418;2024-03-02T03:15:56;10.80;69.30
32296;DHT22;18781;51.550;5.418;2024-03-02T03:18:21;10.80;69.30
32296;DHT22;18781;51.550;5.418;2024-03-02T03:20:47;10.70;69.30
32296;DHT22;18781;51.550;5.418;2024-03-02T03:23:12;10.70;69.30
32296;DHT22;18781;51.550;5.418;2024-03-02T03:25:42;10.70;69.40
32296;DHT22;18781;51.550;5.418;2024-03-02T03:28:08;10.70;69.50
32296;DHT22;18781;51.550;5.418;2024-03-02T03:30:38;10.70;69.20
32296;DHT22;18781;51.550;5.418;2024-03-02T03:33:05;10.70;69.20
32296;DHT22;18781;51.550;5.418;2024-03-02T03:35:34;10.70;69.30
32296;DHT22;18781;51.550;5.418;2024-03-02T03:38:00;10.70;69.20
32296;DHT22;18781;51.550;5.418;2024-03-02T03:40:26;10.70;69.70
32296;DHT22;18781;51.550;5.418;2024-03-02T03:42:52;10.70;69.10
32296;DHT22;18781;51.550;5.418;2024-03-02T03:45:17;10.60;69.00
32296;DHT22;18781;51.550;5.418;2024-03-02T03:47:43;10.70;69.10
32296;DHT22;18781;51.550;5.418;2024-03-02T03:50:09;10.70;69.10
32296;DHT22;18781;51.550;5.418;2024-03-02T03:52:35;10.70;69.10
32296;DHT22;18781;51.550;5.418;2024-03-02T03:55:01;10.60;69.00
32296;DHT22;18781;51.550;5.418;2024-03-02T03:57:27;10.70;68.90
32296;DHT22;18781;51.550;5.418;2024-03-02T03:59:53;10.70;68.80
32296;DHT22;18781;51.550;5.418;2024-03-02T04:02:19;10.70;68.80
32296;DHT22;18781;51.550;5.418;2024-03-02T04:04:45;10.70;68.50
32296;DHT22;18781;51.550;5.418;2024-03-02T04:07:10;10.70;68.50
32296;DHT22;18781;51.550;5.418;2024-03-02T04:09:36;10.70;68.60
32296;DHT22;18781;51.550;5.418;2024-03-02T04:12:02;10.60;69.00
32296;DHT22;18781;51.550;5.418;2024-03-02T04:14:27;10.60;68.60
32296;DHT22;18781;51.550;5.418;2024-03-02T04:16:53;10.60;68.60
32296;DHT22;18781;51.550;5.418;2024-03-02T04:19:18;10.70;68.70
32296;DHT22;18781;51.550;5.418;2024-03-02T04:21:44;10.60;68.60
32296;DHT22;18781;51.550;5.418;2024-03-02T04:24:10;10.60;68.60
32296;DHT22;18781;51.550;5.418;2024-03-02T04:26:35;10.60;68.60
32296;DHT22;18781;51.550;5.418;2024-03-02T04:29:01;10.60;68.60
32296;DHT22;18781;51.550;5.418;2024-03-02T04:31:27;10.60;68.50
32296;DHT22;18781;51.550;5.418;2024-03-02T04:33:53;10.60;68.50
32296;DHT22;18781;51.550;5.418;2024-03-02T04:36:19;10.60;68.50
32296;DHT22;18781;51.550;5.418;2024-03-02T04:38:45;10.60;68.50
32296;DHT22;18781;51.550;5.418;2024-03-02T04:41:10;10.60;68.60
32296;DHT22;18781;51.550;5.418;2024-03-02T04:43:36;10.60;68.60
32296;DHT22;18781;51.550;5.418;2024-03-02T04:46:01;10.60;68.60
32296;DHT22;18781;51.550;5.418;2024-03-02T04:48:27;10.60;68.60
32296;DHT22;18781;51.550;5.418;2024-03-02T04:50:53;10.50;68.60
32296;DHT22;18781;51.550;5.418;2024-03-02T04:53:19;10.60;68.60
32296;DHT22;18781;51.550;5.418;2024-03-02T04:55:44;10.50;68.60
32296;DHT22;18781;51.550;5.418;2024-03-02T04:58:28;10.60;68.60
32296;DHT22;18781;51.550;5.418;2024-03-02T05:00:54;10.60;68.60
32296;DHT22;18781;51.550;5.418;2024-03-02T05:03:19;10.60;68.60
32296;DHT22;18781;51.550;5.418;2024-03-02T05:05:45;10.50;68.50
32296;DHT22;18781;51.550;5.418;2024-03-02T05:08:11;10.60;68.60
32296;DHT22;18781;51.550;5.418;2024-03-02T05:10:37;10.60;68.60
32296;DHT22;18781;51.550;5.418;2024-03-02T05:13:03;10.60;68.60
32296;DHT22;18781;51.550;5.418;2024-03-02T05:15:28;10.60;68.60
32296;DHT22;18781;51.550;5.418;2024-03-02T05:17:54;10.50;68.50
32296;DHT22;18781;51.550;5.418;2024-03-02T05:20:22;10.50;68.50
32296;DHT22;18781;51.550;5.418;2024-03-02T05:22:47;10.50;68.40
32296;DHT22;18781;51.550;5.418;2024-03-02T05:25:15;10.50;68.40
32296;DHT22;18781;51.550;5.418;2024-03-02T05:27:40;10.50;68.40
32296;DHT22;18781;51.550;5.418;2024-03-02T05:30:07;10.50;68.50
32296;DHT22;18781;51.550;5.418;2024-03-02T05:32:33;10.50;68.50
32296;DHT22;18781;51.550;5.418;2024-03-02T05:34:59;10.50;68.50
32296;DHT22;18781;51.550;5.418;2024-03-02T05:37:24;10.50;68.60
32296;DHT22;18781;51.550;5.418;2024-03-02T05:39:50;10.50;68.60
32296;DHT22;18781;51.550;5.418;2024-03-02T05:42:16;10.50;68.60
32296;DHT22;18781;51.550;5.418;2024-03-02T05:44:44;10.50;68.70
32296;DHT22;18781;51.550;5.418;2024-03-02T05:47:09;10.50;68.70
32296;DHT22;18781;51.550;5.418;2024-03-02T05:49:35;10.50;68.80
32296;DHT22;18781;51.550;5.418;2024-03-02T05:52:01;10.50;68.80
32296;DHT22;18781;51.550;5.418;2024-03-02T05:54:26;10.50;68.80
32296;DHT22;18781;51.550;5.418;2024-03-02T05:56:52;10.50;68.80
32296;DHT22;18781;51.550;5.418;2024-03-02T05:59:18;10.50;68.90
32296;DHT22;18781;51.550;5.418;2024-03-02T06:01:47;10.50;68.90
32296;DHT22;18781;51.550;5.418;2024-03-02T06:04:14;10.50;68.80
32296;DHT22;18781;51.550;5.418;2024-03-02T06:06:40;10.50;68.70
32296;DHT22;18781;51.550;5.418;2024-03-02T06:09:06;10.50;68.70
32296;DHT22;18781;51.550;5.418;2024-03-02T06:11:39;10.50;68.60
32296;DHT22;18781;51.550;5.418;2024-03-02T06:14:07;10.50;68.70
32296;DHT22;18781;51.550;5.418;2024-03-02T06:16:33;10.40;68.50
32296;DHT22;18781;51.550;5.418;2024-03-02T06:18:59;10.40;68.60
32296;DHT22;18781;51.550;5.418;2024-03-02T06:21:25;10.40;68.60
32296;DHT22;18781;51.550;5.418;2024-03-02T06:23:51;10.50;68.60
32296;DHT22;18781;51.550;5.418;2024-03-02T06:26:17;10.40;68.60
32296;DHT22;18781;51.550;5.418;2024-03-02T06:28:43;10.40;68.60
32296;DHT22;18781;51.550;5.418;2024-03-02T06:31:09;10.40;68.60
32296;DHT22;18781;51.550;5.418;2024-03-02T06:33:35;10.40;68.60
32296;DHT22;18781;51.550;5.418;2024-03-02T06:36:01;10.40;68.60
32296;DHT22;18781;51.550;5.418;2024-03-02T06:38:27;10.40;68.60
32296;DHT22;18781;51.550;5.418;2024-03-02T06:40:53;10.40;68.60
32296;DHT22;18781;51.550;5.418;2024-03-02T06:43:19;10.40;68.70
32296;DHT22;18781;51.550;5.418;2024-03-02T06:45:51;10.40;68.60
32296;DHT22;18781;51.550;5.418;2024-03-02T06:48:17;10.40;68.70
32296;DHT22;18781;51.550;5.418;2024-03-02T06:50:49;10.40;68.70
32296;DHT22;18781;51.550;5.418;2024-03-02T06:53:15;10.40;68.70
32296;DHT22;18781;51.550;5.418;2024-03-02T06:55:45;10.40;68.70
32296;DHT22;18781;51.550;5.418;2024-03-02T06:58:11;10.40;68.80
32296;DHT22;18781;51.550;5.418;2024-03-02T07:00:37;10.40;68.80
32296;DHT22;18781;51.550;5.418;2024-03-02T07:03:03;10.30;68.80
32296;DHT22;18781;51.550;5.418;2024-03-02T07:05:29;10.40;68.80
32296;DHT22;18781;51.550;5.418;2024-03-02T07:07:55;10.40;68.90
32296;DHT22;18781;51.550;5.418;2024-03-02T07:10:20;10.40;68.80
32296;DHT22;18781;51.550;5.418;2024-03-02T07:12:46;10.40;68.90
32296;DHT22;18781;51.550;5.418;2024-03-02T07:15:12;10.40;68.80
32296;DHT22;18781;51.550;5.418;2024-03-02T07:17:54;10.40;68.90
32296;DHT22;18781;51.550;5.418;2024-03-02T07:20:20;10.40;68.90
32296;DHT22;18781;51.550;5.418;2024-03-02T07:22:45;10.40;68.80
32296;DHT22;18781;51.550;5.418;2024-03-02T07:25:11;10.40;68.80
32296;DHT22;18781;51.550;5.418;2024-03-02T07:27:38;10.40;68.80
32296;DHT22;18781;51.550;5.418;2024-03-02T07:30:04;10.40;68.80
32296;DHT22;18781;51.550;5.418;2024-03-02T07:32:30;10.40;68.80
32296;DHT22;18781;51.550;5.418;2024-03-02T07:34:56;10.40;68.80
32296;DHT22;18781;51.550;5.418;2024-03-02T07:37:23;10.40;68.90
32296;DHT22;18781;51.550;5.418;2024-03-02T07:39:48;10.40;68.80
32296;DHT22;18781;51.550;5.418;2024-03-02T07:42:14;10.40;68.80
32296;DHT22;18781;51.550;5.418;2024-03-02T07:44:40;10.40;68.80
32296;DHT22;18781;51.550;5.418;2024-03-02T07:47:06;10.40;68.80
32296;DHT22;18781;51.550;5.418;2024-03-02T07:49:32;10.40;68.80
32296;DHT22;18781;51.550;5.418;2024-03-02T07:51:57;10.40;68.80
32296;DHT22;18781;51.550;5.418;2024-03-02T07:54:24;10.40;68.60
32296;DHT22;18781;51.550;5.418;2024-03-02T07:56:49;10.40;68.50
32296;DHT22;18781;51.550;5.418;2024-03-02T07:59:15;10.40;68.50
32296;DHT22;18781;51.550;5.418;2024-03-02T08:01:41;10.50;68.50
32296;DHT22;18781;51.550;5.418;2024-03-02T08:04:07;10.40;68.40
32296;DHT22;18781;51.550;5.418;2024-03-02T08:06:32;10.40;68.40
32296;DHT22;18781;51.550;5.418;2024-03-02T08:09:00;10.50;68.30
32296;DHT22;18781;51.550;5.418;2024-03-02T08:11:26;10.50;68.30
32296;DHT22;18781;51.550;5.418;2024-03-02T08:13:53;10.50;68.40
32296;DHT22;18781;51.550;5.418;2024-03-02T08:16:21;10.50;68.40
32296;DHT22;18781;51.550;5.418;2024-03-02T08:18:50;10.50;68.50
32296;DHT22;18781;51.550;5.418;2024-03-02T08:21:16;10.50;68.70
32296;DHT22;18781;51.550;5.418;2024-03-02T08:23:43;10.60;68.70
32296;DHT22;18781;51.550;5.418;2024-03-02T08:26:09;10.60;68.80
32296;DHT22;18781;51.550;5.418;2024-03-02T08:28:35;10.60;68.60
32296;DHT22;18781;51.550;5.418;2024-03-02T08:31:03;10.60;68.70
32296;DHT22;18781;51.550;5.418;2024-03-02T08:33:28;10.70;68.70
32296;DHT22;18781;51.550;5.418;2024-03-02T08:35:54;10.80;68.60
32296;DHT22;18781;51.550;5.418;2024-03-02T08:38:20;10.80;68.60
32296;DHT22;18781;51.550;5.418;2024-03-02T08:40:46;10.90;68.50
32296;DHT22;18781;51.550;5.418;2024-03-02T08:43:12;10.90;68.40
32296;DHT22;18781;51.550;5.418;2024-03-02T08:45:38;11.00;68.40
32296;DHT22;18781;51.550;5.418;2024-03-02T08:48:06;11.00;68.20
32296;DHT22;18781;51.550;5.418;2024-03-02T08:50:33;11.00;68.20
32296;DHT22;18781;51.550;5.418;2024-03-02T08:52:59;11.10;68.00
32296;DHT22;18781;51.550;5.418;2024-03-02T08:55:25;11.10;67.90
32296;DHT22;18781;51.550;5.418;2024-03-02T08:57:50;11.20;68.00
32296;DHT22;18781;51.550;5.418;2024-03-02T09:00:16;11.20;68.00
32296;DHT22;18781;51.550;5.418;2024-03-02T09:02:44;11.30;68.20
32296;DHT22;18781;51.550;5.418;2024-03-02T09:05:10;11.40;67.90
32296;DHT22;18781;51.550;5.418;2024-03-02T09:07:36;11.40;68.00
32296;DHT22;18781;51.550;5.418;2024-03-02T09:10:03;11.50;67.90
32296;DHT22;18781;51.550;5.418;2024-03-02T09:12:28;11.50;67.80
32296;DHT22;18781;51.550;5.418;2024-03-02T09:14:54;11.60;67.50
32296;DHT22;18781;51.550;5.418;2024-03-02T09:17:20;11.60;67.10
32296;DHT22;18781;51.550;5.418;2024-03-02T09:19:45;11.70;67.40
32296;DHT22;18781;51.550;5.418;2024-03-02T09:22:11;11.70;66.90
32296;DHT22;18781;51.550;5.418;2024-03-02T09:24:37;11.80;66.90
32296;DHT22;18781;51.550;5.418;2024-03-02T09:27:02;11.80;66.50
32296;DHT22;18781;51.550;5.418;2024-03-02T09:29:28;11.90;66.20
32296;DHT22;18781;51.550;5.418;2024-03-02T09:31:54;12.00;66.20
32296;DHT22;18781;51.550;5.418;2024-03-02T09:34:20;12.00;65.90
32296;DHT22;18781;51.550;5.418;2024-03-02T09:36:46;12.00;65.80
32296;DHT22;18781;51.550;5.418;2024-03-02T09:39:11;12.10;65.90
32296;DHT22;18781;51.550;5.418;2024-03-02T09:41:38;12.20;65.70
32296;DHT22;18781;51.550;5.418;2024-03-02T09:44:05;12.20;65.40
32296;DHT22;18781;51.550;5.418;2024-03-02T09:46:31;12.30;65.70
32296;DHT22;18781;51.550;5.418;2024-03-02T09:48:57;12.30;65.70
32296;DHT22;18781;51.550;5.418;2024-03-02T09:51:23;12.40;65.60
32296;DHT22;18781;51.550;5.418;2024-03-02T09:53:49;12.40;65.50
32296;DHT22;18781;51.550;5.418;2024-03-02T09:56:15;12.40;65.00
32296;DHT22;18781;51.550;5.418;2024-03-02T09:58:44;12.50;64.80
32296;DHT22;18781;51.550;5.418;2024-03-02T10:01:10;12.50;64.40
32296;DHT22;18781;51.550;5.418;2024-03-02T10:03:37;12.50;64.40
32296;DHT22;18781;51.550;5.418;2024-03-02T10:06:22;12.60;63.80
32296;DHT22;18781;51.550;5.418;2024-03-02T10:08:48;12.60;63.70
32296;DHT22;18781;51.550;5.418;2024-03-02T10:11:29;12.70;63.40
32296;DHT22;18781;51.550;5.418;2024-03-02T10:16:35;12.80;63.30
32296;DHT22;18781;51.550;5.418;2024-03-02T10:21:44;12.80;62.50
32296;DHT22;18781;51.550;5.418;2024-03-02T10:24:10;12.90;61.60
32296;DHT22;18781;51.550;5.418;2024-03-02T10:26:35;12.90;61.60
32296;DHT22;18781;51.550;5.418;2024-03-02T10:29:01;13.00;61.30
32296;DHT22;18781;51.550;5.418;2024-03-02T10:31:28;13.00;61.10
32296;DHT22;18781;51.550;5.418;2024-03-02T10:34:00;13.10;61.10
32296;DHT22;18781;51.550;5.418;2024-03-02T10:36:25;13.10;60.70
32296;DHT22;18781;51.550;5.418;2024-03-02T10:38:52;13.10;61.00
32296;DHT22;18781;51.550;5.418;2024-03-02T10:41:23;13.20;60.80
32296;DHT22;18781;51.550;5.418;2024-03-02T10:43:52;13.20;60.60
32296;DHT22;18781;51.550;5.418;2024-03-02T10:46:20;13.30;60.50
32296;DHT22;18781;51.550;5.418;2024-03-02T10:48:46;13.30;59.50
32296;DHT22;18781;51.550;5.418;2024-03-02T10:51:12;13.30;59.30
32296;DHT22;18781;51.550;5.418;2024-03-02T10:53:38;13.40;59.10
32296;DHT22;18781;51.550;5.418;2024-03-02T10:56:07;13.40;59.20
32296;DHT22;18781;51.550;5.418;2024-03-02T10:58:32;13.40;58.60
32296;DHT22;18781;51.550;5.418;2024-03-02T11:01:02;13.50;60.70
32296;DHT22;18781;51.550;5.418;2024-03-02T11:03:31;13.50;59.40
32296;DHT22;18781;51.550;5.418;2024-03-02T11:05:59;13.60;59.30
32296;DHT22;18781;51.550;5.418;2024-03-02T11:08:26;13.60;59.00
32296;DHT22;18781;51.550;5.418;2024-03-02T11:11:06;13.70;58.60
32296;DHT22;18781;51.550;5.418;2024-03-02T11:13:33;13.70;58.20
32296;DHT22;18781;51.550;5.418;2024-03-02T11:16:06;13.80;58.60
32296;DHT22;18781;51.550;5.418;2024-03-02T11:18:34;13.80;57.70
32296;DHT22;18781;51.550;5.418;2024-03-02T11:21:00;13.90;58.20
32296;DHT22;18781;51.550;5.418;2024-03-02T11:23:34;13.90;58.40
32296;DHT22;18781;51.550;5.418;2024-03-02T11:26:21;14.00;58.10
32296;DHT22;18781;51.550;5.418;2024-03-02T11:28:47;14.00;57.80
32296;DHT22;18781;51.550;5.418;2024-03-02T11:31:13;14.10;58.10
32296;DHT22;18781;51.550;5.418;2024-03-02T11:33:38;14.10;58.10
32296;DHT22;18781;51.550;5.418;2024-03-02T11:36:06;14.10;58.10
32296;DHT22;18781;51.550;5.418;2024-03-02T11:38:33;14.20;57.70
32296;DHT22;18781;51.550;5.418;2024-03-02T11:41:05;14.20;57.80
32296;DHT22;18781;51.550;5.418;2024-03-02T11:43:32;14.30;57.60
32296;DHT22;18781;51.550;5.418;2024-03-02T11:45:59;14.30;57.90
32296;DHT22;18781;51.550;5.418;2024-03-02T11:48:26;14.40;57.90
32296;DHT22;18781;51.550;5.418;2024-03-02T11:50:52;14.40;57.90
32296;DHT22;18781;51.550;5.418;2024-03-02T11:53:19;14.50;57.90
32296;DHT22;18781;51.550;5.418;2024-03-02T11:55:46;14.50;57.50
32296;DHT22;18781;51.550;5.418;2024-03-02T11:58:12;14.60;56.70
32296;DHT22;18781;51.550;5.418;2024-03-02T12:00:38;14.60;56.90
32296;DHT22;18781;51.550;5.418;2024-03-02T12:03:08;14.70;57.50
32296;DHT22;18781;51.550;5.418;2024-03-02T12:05:35;14.70;57.20
32296;DHT22;18781;51.550;5.418;2024-03-02T12:08:03;14.80;57.30
32296;DHT22;18781;51.550;5.418;2024-03-02T12:10:29;14.80;56.60
32296;DHT22;18781;51.550;5.418;2024-03-02T12:13:01;14.80;56.10
32296;DHT22;18781;51.550;5.418;2024-03-02T12:15:37;14.90;56.30
32296;DHT22;18781;51.550;5.418;2024-03-02T12:18:04;14.90;56.50
32296;DHT22;18781;51.550;5.418;2024-03-02T12:20:31;14.90;56.40
32296;DHT22;18781;51.550;5.418;2024-03-02T12:23:01;15.00;56.20
32296;DHT22;18781;51.550;5.418;2024-03-02T12:25:28;15.00;55.30
32296;DHT22;18781;51.550;5.418;2024-03-02T12:27:55;15.00;55.30
32296;DHT22;18781;51.550;5.418;2024-03-02T12:30:21;15.00;55.60
32296;DHT22;18781;51.550;5.418;2024-03-02T12:32:48;15.10;56.00
32296;DHT22;18781;51.550;5.418;2024-03-02T12:35:14;15.10;55.70
32296;DHT22;18781;51.550;5.418;2024-03-02T12:37:52;15.10;55.90
32296;DHT22;18781;51.550;5.418;2024-03-02T12:40:19;15.20;55.50
32296;DHT22;18781;51.550;5.418;2024-03-02T12:42:46;15.20;56.00
32296;DHT22;18781;51.550;5.418;2024-03-02T12:45:12;15.30;55.90
32296;DHT22;18781;51.550;5.418;2024-03-02T12:47:40;15.30;55.40
32296;DHT22;18781;51.550;5.418;2024-03-02T12:50:06;15.30;55.30
32296;DHT22;18781;51.550;5.418;2024-03-02T12:52:32;15.30;55.40
32296;DHT22;18781;51.550;5.418;2024-03-02T12:55:02;15.40;55.30
32296;DHT22;18781;51.550;5.418;2024-03-02T12:57:30;15.40;55.00
32296;DHT22;18781;51.550;5.418;2024-03-02T12:59:59;15.50;55.60
32296;DHT22;18781;51.550;5.418;2024-03-02T13:02:28;15.50;55.30
32296;DHT22;18781;51.550;5.418;2024-03-02T13:04:55;15.50;56.80
32296;DHT22;18781;51.550;5.418;2024-03-02T13:07:21;15.50;55.20
32296;DHT22;18781;51.550;5.418;2024-03-02T13:09:50;15.60;55.10
32296;DHT22;18781;51.550;5.418;2024-03-02T13:12:17;15.60;54.80
32296;DHT22;18781;51.550;5.418;2024-03-02T13:14:43;15.60;55.00
32296;DHT22;18781;51.550;5.418;2024-03-02T13:17:09;15.60;55.00
32296;DHT22;18781;51.550;5.418;2024-03-02T13:19:35;15.70;54.70
32296;DHT22;18781;51.550;5.418;2024-03-02T13:22:00;15.70;54.50
32296;DHT22;18781;51.550;5.418;2024-03-02T13:24:29;15.70;54.60
32296;DHT22;18781;51.550;5.418;2024-03-02T13:26:55;15.70;54.50
32296;DHT22;18781;51.550;5.418;2024-03-02T13:29:23;15.80;54.60
32296;DHT22;18781;51.550;5.418;2024-03-02T13:31:49;15.80;54.20
32296;DHT22;18781;51.550;5.418;2024-03-02T13:34:15;15.80;54.40
32296;DHT22;18781;51.550;5.418;2024-03-02T13:36:41;15.80;53.30
32296;DHT22;18781;51.550;5.418;2024-03-02T13:39:06;15.90;53.80
32296;DHT22;18781;51.550;5.418;2024-03-02T13:41:34;15.90;53.60
32296;DHT22;18781;51.550;5.418;2024-03-02T13:44:00;15.90;54.10
32296;DHT22;18781;51.550;5.418;2024-03-02T13:46:27;16.00;53.30
32296;DHT22;18781;51.550;5.418;2024-03-02T13:48:54;15.90;53.50
32296;DHT22;18781;51.550;5.418;2024-03-02T13:51:20;16.00;53.30
32296;DHT22;18781;51.550;5.418;2024-03-02T13:53:45;16.00;53.60
32296;DHT22;18781;51.550;5.418;2024-03-02T13:56:11;16.10;53.60
32296;DHT22;18781;51.550;5.418;2024-03-02T13:58:37;16.10;52.00
32296;DHT22;18781;51.550;5.418;2024-03-02T14:01:03;16.10;52.80
32296;DHT22;18781;51.550;5.418;2024-03-02T14:03:30;16.10;53.00
32296;DHT22;18781;51.550;5.418;2024-03-02T14:05:56;16.20;53.20
32296;DHT22;18781;51.550;5.418;2024-03-02T14:08:22;16.20;53.30
32296;DHT22;18781;51.550;5.418;2024-03-02T14:10:48;16.20;53.20
32296;DHT22;18781;51.550;5.418;2024-03-02T14:13:14;16.20;53.30
32296;DHT22;18781;51.550;5.418;2024-03-02T14:15:41;16.30;53.10
32296;DHT22;18781;51.550;5.418;2024-03-02T14:18:06;16.30;52.80
32296;DHT22;18781;51.550;5.418;2024-03-02T14:20:32;16.40;52.50
32296;DHT22;18781;51.550;5.418;2024-03-02T14:22:58;16.40;52.90
32296;DHT22;18781;51.550;5.418;2024-03-02T14:25:28;16.40;53.00
32296;DHT22;18781;51.550;5.418;2024-03-02T14:27:57;16.40;52.60
32296;DHT22;18781;51.550;5.418;2024-03-02T14:30:23;16.40;52.90
32296;DHT22;18781;51.550;5.418;2024-03-02T14:32:49;16.50;53.10
32296;DHT22;18781;51.550;5.418;2024-03-02T14:35:14;16.50;52.30
32296;DHT22;18781;51.550;5.418;2024-03-02T14:37:40;16.50;52.10
32296;DHT22;18781;51.550;5.418;2024-03-02T14:40:07;16.50;52.30
32296;DHT22;18781;51.550;5.418;2024-03-02T14:42:35;16.60;52.40
32296;DHT22;18781;51.550;5.418;2024-03-02T14:45:01;16.60;52.50
32296;DHT22;18781;51.550;5.418;2024-03-02T14:47:29;16.60;52.30
32296;DHT22;18781;51.550;5.418;2024-03-02T14:49:55;16.60;52.20
32296;DHT22;18781;51.550;5.418;2024-03-02T14:52:21;16.70;52.10
32296;DHT22;18781;51.550;5.418;2024-03-02T14:54:46;16.70;51.90
32296;DHT22;18781;51.550;5.418;2024-03-02T14:57:12;16.80;51.80
32296;DHT22;18781;51.550;5.418;2024-03-02T14:59:38;16.80;51.70
32296;DHT22;18781;51.550;5.418;2024-03-02T15:02:04;16.80;51.30
32296;DHT22;18781;51.550;5.418;2024-03-02T15:04:30;16.90;52.10
32296;DHT22;18781;51.550;5.418;2024-03-02T15:06:56;16.90;52.20
32296;DHT22;18781;51.550;5.418;2024-03-02T15:09:21;16.90;52.00
32296;DHT22;18781;51.550;5.418;2024-03-02T15:11:47;16.90;51.70
32296;DHT22;18781;51.550;5.418;2024-03-02T15:14:13;16.90;51.20
32296;DHT22;18781;51.550;5.418;2024-03-02T15:16:39;16.90;51.00
32296;DHT22;18781;51.550;5.418;2024-03-02T15:19:04;16.90;50.90
32296;DHT22;18781;51.550;5.418;2024-03-02T15:21:30;16.90;51.00
32296;DHT22;18781;51.550;5.418;2024-03-02T15:23:55;16.90;51.30
32296;DHT22;18781;51.550;5.418;2024-03-02T15:26:21;16.90;51.60
32296;DHT22;18781;51.550;5.418;2024-03-02T15:28:47;16.90;51.90
32296;DHT22;18781;51.550;5.418;2024-03-02T15:31:12;16.90;51.70